Time;durP1;ratioP1;P1;durP2;ratioP2;P2;SDS_P1;SDS_P2;PMS_P1;PMS_P2;Temp;Humidity;BMP_temperature;BMP_pressure;BME280_temperature;BME280_humidity;BME280_pressure;Samples;Min_cycle;Max_cycle;Signal;HPM_P1;HPM_P2
2021/10/10 09:19:27;;;;;;;24.10;12.30;;;;;;;7.22;96.59;100010.44;5109117;27;20383;-82
2021/10/10 09:22:01;;;;;;;19.48;11.70;;;;;;;7.53;95.94;100021.09;5115283;28;20479;-82
2021/10/10 09:24:28;;;;;;;23.25;12.15;;;;;;;7.65;95.97;100005.56;5090257;28;20052;-82
2021/10/10 09:26:55;;;;;;;23.30;11.15;;;;;;;7.95;91.52;100015.31;5097902;28;20048;-82
2021/10/10 09:29:33;;;;;;;24.55;11.02;;;;;;;8.14;87.13;100000.00;5110625;28;20490;-82
2021/10/10 09:32:09;;;;;;;22.73;11.63;;;;;;;8.30;87.46;100002.91;5110571;28;20048;-82
2021/10/10 09:34:38;;;;;;;20.35;11.05;;;;;;;8.55;84.59;100014.13;5091096;28;20048;-82
2021/10/10 09:37:07;;;;;;;21.10;11.00;;;;;;;8.63;83.07;100010.66;5106096;28;20078;-83
2021/10/10 09:39:41;;;;;;;17.98;10.45;;;;;;;8.60;83.26;100011.78;5100806;28;20459;-83
2021/10/10 09:42:08;;;;;;;20.63;10.57;;;;;;;8.62;82.69;100017.06;5110368;28;20101;-83
2021/10/10 09:44:47;;;;;;;25.45;11.27;;;;;;;8.59;82.65;100006.53;5109415;28;20044;-82
2021/10/10 09:47:16;;;;;;;23.23;9.48;;;;;;;8.71;83.04;100002.59;5109056;28;20048;-83
2021/10/10 09:49:45;;;;;;;17.52;10.48;;;;;;;8.79;82.98;99988.28;5108328;28;20047;-82
2021/10/10 09:52:14;;;;;;;18.85;10.30;;;;;;;9.03;82.34;100006.66;5108605;28;20051;-83
2021/10/10 09:54:52;;;;;;;20.08;10.07;;;;;;;9.08;79.63;100006.19;5109701;28;20058;-83
2021/10/10 09:57:19;;;;;;;19.38;9.90;;;;;;;9.04;80.16;100006.50;5108637;28;20044;-82
2021/10/10 09:59:53;;;;;;;23.52;9.75;;;;;;;9.28;81.68;100009.59;5100058;28;20483;-83
2021/10/10 10:02:38;;;;;;;22.30;11.55;;;;;;;9.35;80.53;100003.41;5107111;28;20128;-83
2021/10/10 10:05:10;;;;;;;18.15;10.20;;;;;;;9.46;79.96;99993.31;5109417;28;20054;-83
2021/10/10 10:07:40;;;;;;;27.08;9.70;;;;;;;9.59;78.54;99991.03;5096032;28;20138;-83
2021/10/10 10:10:08;;;;;;;23.48;9.07;;;;;;;9.74;79.15;100010.31;5108724;28;20044;-83
2021/10/10 10:12:37;;;;;;;16.98;9.52;;;;;;;9.84;79.71;99996.63;5109367;28;20501;-85
2021/10/10 10:15:07;;;;;;;19.92;9.70;;;;;;;9.92;76.03;99996.66;5108059;28;20047;-85
2021/10/10 10:17:35;;;;;;;18.30;10.13;;;;;;;9.82;76.07;99983.22;5109910;28;20047;-84
2021/10/10 10:20:04;;;;;;;16.33;8.77;;;;;;;9.89;77.98;99977.97;5110315;28;20475;-85
2021/10/10 10:22:35;;;;;;;18.77;9.27;;;;;;;10.06;75.10;99987.94;5110380;28;20056;-85
2021/10/10 10:25:09;;;;;;;18.45;8.88;;;;;;;10.10;75.08;99991.16;5109947;28;20111;-85
2021/10/10 10:27:36;;;;;;;19.17;9.05;;;;;;;10.10;76.12;99974.88;5110278;28;20051;-85
2021/10/10 10:30:05;;;;;;;15.30;8.80;;;;;;;10.31;75.19;99977.16;5098565;28;20036;-86
2021/10/10 10:32:34;;;;;;;12.90;8.40;;;;;;;10.43;72.67;99994.06;5096535;28;20059;-85
2021/10/10 10:35:03;;;;;;;18.02;8.50;;;;;;;10.58;75.89;99988.88;5096497;28;20048;-85
2021/10/10 10:38:05;;;;;;;17.77;8.43;;;;;;;10.70;74.74;99989.41;5105235;28;20043;-85
2021/10/10 10:40:38;;;;;;;13.48;8.57;;;;;;;10.70;74.42;99983.97;5040752;28;20076;-86
2021/10/10 10:43:08;;;;;;;16.85;8.20;;;;;;;10.84;74.46;99983.34;5018976;28;20478;-85
2021/10/10 10:45:37;;;;;;;14.63;8.63;;;;;;;10.84;73.18;99966.16;5066054;28;20051;-85
2021/10/10 10:48:07;;;;;;;14.05;8.75;;;;;;;10.87;71.65;99972.13;5094813;28;20036;-84
2021/10/10 10:50:37;;;;;;;13.50;8.97;;;;;;;11.01;73.24;99984.22;5096072;28;20048;-84
2021/10/10 10:53:09;;;;;;;15.05;8.27;;;;;;;11.10;72.17;99985.94;5101188;28;20109;-84
2021/10/10 10:55:38;;;;;;;20.17;7.47;;;;;;;11.10;70.35;99979.66;5110152;28;20471;-85
2021/10/10 10:58:10;;;;;;;13.23;6.88;;;;;;;10.97;65.89;99952.91;5096098;28;20040;-84
2021/10/10 11:00:41;;;;;;;12.65;6.30;;;;;;;11.27;63.81;99964.16;5095803;28;20040;-84
2021/10/10 11:03:10;;;;;;;11.57;7.05;;;;;;;11.43;64.69;99964.16;5096523;28;20056;-85
2021/10/10 11:05:49;;;;;;;15.05;6.90;;;;;;;11.49;65.78;99957.19;5080201;28;20044;-84
2021/10/10 11:09:06;;;;;;;12.20;7.03;;;;;;;11.73;65.78;99969.06;5096376;28;20051;-84
2021/10/10 11:11:58;;;;;;;12.38;6.40;;;;;;;11.72;60.11;99960.03;5096020;28;20331;-84
2021/10/10 11:14:28;;;;;;;14.20;6.85;;;;;;;11.62;61.52;99952.09;5096010;28;20055;-84
2021/10/10 11:17:07;;;;;;;13.57;6.28;;;;;;;11.83;60.33;99962.44;5095706;28;20136;-84
2021/10/10 11:19:34;;;;;;;12.68;6.57;;;;;;;11.87;60.10;99944.69;5095345;28;20051;-84
2021/10/10 11:22:01;;;;;;;9.20;6.53;;;;;;;12.04;58.62;99951.00;5094599;28;20160;-84
2021/10/10 11:24:29;;;;;;;13.48;7.00;;;;;;;12.15;60.36;99962.50;5094973;28;20052;-84
2021/10/10 11:26:59;;;;;;;13.98;6.90;;;;;;;12.09;58.98;99939.56;5094792;28;20101;-84
2021/10/10 11:29:27;;;;;;;;;;;;;;;12.19;57.63;99953.84;5095698;28;20056;-84
2021/10/10 11:31:56;;;;;;;10.25;5.28;;;;;;;12.32;56.85;99947.81;5095249;28;19927;-85
2021/10/10 11:34:24;;;;;;;9.50;5.18;;;;;;;12.32;55.25;99930.59;5095509;28;20407;-83
2021/10/10 11:36:53;;;;;;;11.48;6.35;;;;;;;12.43;55.00;99926.63;5094216;28;20056;-84
2021/10/10 11:39:22;;;;;;;16.08;6.28;;;;;;;12.39;56.61;99918.81;5095439;28;20043;-84
2021/10/10 11:41:52;;;;;;;9.90;5.47;;;;;;;12.50;56.17;99911.25;5093846;28;20048;-84
2021/10/10 11:44:20;;;;;;;11.85;4.85;;;;;;;12.66;56.46;99916.63;5095511;28;20131;-84
2021/10/10 11:46:49;;;;;;;12.30;5.97;;;;;;;12.82;56.09;99917.53;5094953;28;20555;-84
2021/10/10 11:49:38;;;;;;;12.27;5.67;;;;;;;12.83;57.91;99913.78;5112455;28;20077;-84
2021/10/10 11:52:18;;;;;;;9.55;5.60;;;;;;;12.93;54.48;99922.56;5101931;28;20066;-84
2021/10/10 11:54:48;;;;;;;8.27;5.47;;;;;;;13.17;56.65;99927.00;5094851;28;20146;-83
2021/10/10 11:57:18;;;;;;;;;;;;;;;13.24;55.29;99925.22;5095584;28;20083;-84
2021/10/10 11:59:52;;;;;;;8.97;5.33;;;;;;;13.29;56.35;99932.84;5094789;28;19995;-85
2021/10/10 12:02:20;;;;;;;10.30;5.15;;;;;;;13.20;51.37;99910.25;5094613;28;20757;-84
2021/10/10 12:04:47;;;;;;;8.10;4.57;;;;;;;13.24;53.48;99922.47;5099091;28;20482;-84
2021/10/10 12:07:15;;;;;;;11.25;6.05;;;;;;;13.32;53.39;99909.78;5102997;28;20052;-84
2021/10/10 12:09:49;;;;;;;10.27;5.13;;;;;;;13.45;53.98;99935.47;5094601;28;20058;-83
2021/10/10 12:12:18;;;;;;;11.32;5.97;;;;;;;13.47;54.25;99916.16;5094541;28;20483;-84
2021/10/10 12:14:50;;;;;;;10.07;5.40;;;;;;;13.59;50.80;99931.09;5094628;28;20483;-84
2021/10/10 12:17:28;;;;;;;11.13;5.28;;;;;;;13.51;50.69;99913.94;5094583;28;20051;-84
2021/10/10 12:19:55;;;;;;;14.02;5.28;;;;;;;13.60;53.66;99904.63;5095132;28;20055;-84
2021/10/10 12:22:22;;;;;;;7.80;4.72;;;;;;;13.62;51.65;99908.88;5094123;28;20095;-84
2021/10/10 12:24:50;;;;;;;13.75;5.18;;;;;;;13.74;51.10;99908.38;5094026;28;20418;-85
2021/10/10 12:27:30;;;;;;;8.98;5.35;;;;;;;13.59;49.11;99901.03;5084291;28;20414;-84
2021/10/10 12:29:59;;;;;;;15.23;6.30;;;;;;;13.74;50.81;99887.38;5094262;28;20101;-84
2021/10/10 12:33:00;;;;;;;10.68;5.13;;;;;;;13.98;50.04;99902.66;5093875;28;20411;-85
2021/10/10 12:35:27;;;;;;;10.02;4.72;;;;;;;13.95;48.05;99891.22;5094323;28;20529;-85
2021/10/10 12:37:56;;;;;;;9.00;4.70;;;;;;;13.95;51.09;99893.97;5099204;28;20050;-84
2021/10/10 12:40:28;;;;;;;10.85;4.78;;;;;;;14.09;50.77;99900.47;5114554;28;20059;-84
2021/10/10 12:42:59;;;;;;;5.82;4.07;;;;;;;14.09;51.99;99895.84;5101355;28;20073;-84
2021/10/10 12:45:33;;;;;;;9.07;5.15;;;;;;;14.03;51.10;99876.63;5093640;28;20491;-85
2021/10/10 12:48:03;;;;;;;12.90;5.18;;;;;;;14.00;51.17;99886.06;5094308;28;20052;-85
2021/10/10 12:50:31;;;;;;;12.25;4.68;;;;;;;14.19;51.15;99898.28;5093710;28;20078;-84
2021/10/10 12:52:58;;;;;;;10.23;5.18;;;;;;;14.08;49.40;99880.47;5093567;28;20055;-84
2021/10/10 12:55:27;;;;;;;10.02;4.07;;;;;;;14.18;49.15;99882.06;5093426;28;20040;-84
2021/10/10 12:57:58;;;;;;;16.27;5.33;;;;;;;14.27;46.53;99872.72;5093749;28;20051;-84
2021/10/10 13:00:27;;;;;;;8.20;4.32;;;;;;;14.21;47.13;99877.09;5093689;28;20302;-84
2021/10/10 13:02:54;;;;;;;15.35;5.53;;;;;;;14.16;48.25;99887.72;5092929;28;20048;-84
2021/10/10 13:05:24;;;;;;;8.93;4.72;;;;;;;13.86;47.16;99878.72;5093112;28;20075;-84
2021/10/10 13:07:51;;;;;;;10.35;5.65;;;;;;;14.05;48.89;99874.56;5093908;28;20048;-84
2021/10/10 13:10:18;;;;;;;8.18;4.60;;;;;;;14.18;48.86;99869.22;5093571;28;20059;-84
2021/10/10 13:12:45;;;;;;;11.93;4.88;;;;;;;14.26;48.72;99863.66;5093911;28;20058;-84
2021/10/10 13:15:13;;;;;;;9.15;4.57;;;;;;;14.38;47.76;99879.56;5093189;28;20054;-84
2021/10/10 13:17:42;;;;;;;9.07;4.57;;;;;;;14.22;47.94;99869.72;5093411;28;20053;-84
2021/10/10 13:20:10;;;;;;;11.38;5.43;;;;;;;14.23;48.80;99863.22;5093005;28;20048;-84
2021/10/10 13:22:37;;;;;;;9.00;5.07;;;;;;;14.33;49.95;99866.47;5093512;28;20044;-84
2021/10/10 13:25:06;;;;;;;11.32;5.18;;;;;;;14.32;51.54;99867.53;5106338;28;20040;-84
2021/10/10 13:27:34;;;;;;;10.00;5.50;;;;;;;14.44;51.57;99882.41;5093540;28;20071;-84
2021/10/10 13:30:00;;;;;;;8.85;4.65;;;;;;;14.33;51.12;99891.09;5078096;28;20398;-84
2021/10/10 13:32:29;;;;;;;11.10;5.35;;;;;;;14.42;52.71;99892.69;5093394;28;20052;-85
2021/10/10 13:34:56;;;;;;;12.90;6.03;;;;;;;14.37;48.76;99877.91;5092887;28;20083;-84
2021/10/10 13:37:26;;;;;;;11.40;4.78;;;;;;;14.27;48.26;99884.53;5092517;28;20055;-84
2021/10/10 13:39:54;;;;;;;;;;;;;;;14.28;50.47;99882.63;5093756;28;20052;-85
2021/10/10 13:42:22;;;;;;;9.38;4.93;;;;;;;14.19;49.32;99868.22;5092982;28;19920;-84
2021/10/10 13:44:50;;;;;;;9.07;5.35;;;;;;;14.42;48.56;99878.16;5093193;28;20082;-84
2021/10/10 13:47:17;;;;;;;12.00;5.05;;;;;;;14.48;48.51;99872.78;5093245;28;20453;-84
2021/10/10 13:49:48;;;;;;;11.98;5.22;;;;;;;14.40;50.35;99877.50;5093414;28;20411;-84
2021/10/10 13:52:16;;;;;;;13.05;5.90;;;;;;;14.12;52.11;99864.53;5073127;28;20571;-84
2021/10/10 13:54:45;;;;;;;11.50;5.20;;;;;;;14.19;52.02;99857.28;5072768;28;20132;-84
2021/10/10 13:57:12;;;;;;;8.82;5.20;;;;;;;14.18;52.03;99862.94;5093028;28;20052;-84
2021/10/10 13:59:39;;;;;;;11.45;5.57;;;;;;;14.38;51.35;99885.91;5073308;28;20072;-84
2021/10/10 14:02:06;;;;;;;11.65;5.93;;;;;;;14.32;50.16;99875.75;5091632;28;20044;-84
2021/10/10 14:04:33;;;;;;;14.65;5.93;;;;;;;14.36;50.73;99882.50;5094661;28;20051;-84
2021/10/10 14:07:01;;;;;;;11.35;5.30;;;;;;;14.38;51.82;99885.91;5113733;28;20048;-85
2021/10/10 14:09:28;;;;;;;10.25;4.65;;;;;;;14.33;51.66;99881.00;5117236;28;20051;-84
2021/10/10 14:11:55;;;;;;;9.00;5.20;;;;;;;14.36;50.71;99859.78;5100814;28;20437;-85
2021/10/10 14:14:22;;;;;;;16.45;5.90;;;;;;;14.31;49.45;99869.41;5096736;28;20058;-83
2021/10/10 14:16:49;;;;;;;8.55;4.90;;;;;;;14.25;50.73;99858.41;5096686;28;20048;-84
2021/10/10 14:19:16;;;;;;;11.05;5.60;;;;;;;14.32;50.84;99867.53;5096862;28;20445;-85
2021/10/10 14:21:42;;;;;;;12.95;5.53;;;;;;;14.48;50.73;99871.91;5096353;28;20101;-84
2021/10/10 14:24:11;;;;;;;10.43;5.57;;;;;;;14.40;51.72;99856.47;5096790;28;20058;-84
2021/10/10 14:26:38;;;;;;;9.60;5.03;;;;;;;14.40;50.61;99866.56;5096291;28;20074;-84
2021/10/10 14:29:05;;;;;;;12.43;6.20;;;;;;;14.28;50.62;99858.84;5096638;28;20044;-84
2021/10/10 14:31:32;;;;;;;10.90;5.20;;;;;;;14.17;51.32;99867.56;5104432;28;20134;-84
2021/10/10 14:33:59;;;;;;;11.30;5.88;;;;;;;14.36;51.09;99874.28;5096641;28;20040;-83
2021/10/10 14:36:26;;;;;;;11.35;5.30;;;;;;;14.26;50.98;99854.63;5095260;28;20434;-83
2021/10/10 14:38:52;;;;;;;13.40;5.78;;;;;;;14.40;50.93;99872.03;5096468;28;20514;-84
2021/10/10 14:41:23;;;;;;;11.55;5.50;;;;;;;14.11;51.71;99857.38;5095981;28;20376;-84
2021/10/10 14:44:02;;;;;;;11.40;5.88;;;;;;;14.18;50.37;99868.41;5095491;28;20119;-84
2021/10/10 14:46:30;;;;;;;13.88;5.95;;;;;;;14.14;52.13;99868.78;5095014;28;20058;-84
2021/10/10 14:48:59;;;;;;;13.38;6.10;;;;;;;14.15;52.79;99869.63;5097007;28;20044;-84
2021/10/10 14:51:28;;;;;;;16.10;5.75;;;;;;;14.27;51.89;99850.84;5095664;28;20070;-83
2021/10/10 14:53:55;;;;;;;18.33;5.45;;;;;;;14.38;51.03;99863.16;5095856;28;20071;-84
2021/10/10 14:56:23;;;;;;;13.45;5.63;;;;;;;14.38;50.49;99852.22;5095106;28;20047;-83
2021/10/10 14:58:50;;;;;;;11.32;5.55;;;;;;;14.39;49.73;99867.59;5095481;28;20414;-84
2021/10/10 15:01:17;;;;;;;10.98;5.80;;;;;;;14.28;49.68;99858.84;5095660;28;20105;-83
2021/10/10 15:03:44;;;;;;;8.20;5.72;;;;;;;14.16;49.88;99836.63;5094657;28;20055;-84
2021/10/10 15:06:10;;;;;;;13.50;5.60;;;;;;;14.20;50.10;99860.88;5094279;28;20406;-84
2021/10/10 15:08:37;;;;;;;12.07;6.13;;;;;;;14.09;51.28;99860.31;5094913;28;20044;-84
2021/10/10 15:11:05;;;;;;;10.65;5.82;;;;;;;14.11;52.26;99857.38;5094213;28;20040;-84
2021/10/10 15:13:36;;;;;;;11.13;5.53;;;;;;;14.28;52.19;99853.38;5093384;28;20063;-82
2021/10/10 15:16:02;;;;;;;15.32;5.13;;;;;;;14.16;51.63;99860.38;5080868;28;20506;-84
2021/10/10 15:18:30;;;;;;;11.93;6.40;;;;;;;14.24;52.40;99862.16;5093719;28;20052;-84
2021/10/10 15:20:57;;;;;;;11.30;5.30;;;;;;;14.14;51.73;99860.59;5094873;28;20048;-83
2021/10/10 15:23:24;;;;;;;10.30;5.28;;;;;;;13.94;51.95;99852.13;5094436;28;20131;-83
2021/10/10 15:25:51;;;;;;;12.80;5.80;;;;;;;13.74;52.64;99849.09;5094788;28;20044;-83
2021/10/10 15:28:18;;;;;;;10.23;5.68;;;;;;;13.59;53.34;99840.94;5094929;28;20040;-83
2021/10/10 15:30:48;;;;;;;12.70;5.80;;;;;;;13.51;53.51;99845.63;5094946;28;20048;-83
2021/10/10 15:33:18;;;;;;;12.65;6.38;;;;;;;13.47;54.32;99853.34;5093819;28;20062;-83
2021/10/10 15:35:44;;;;;;;11.68;5.82;;;;;;;13.31;55.21;99839.81;5084227;28;20558;-84
2021/10/10 15:38:11;;;;;;;11.05;6.07;;;;;;;13.20;55.39;99860.25;5094040;28;20508;-84
2021/10/10 15:40:38;;;;;;;13.32;6.00;;;;;;;12.98;56.07;99840.16;5094077;28;20139;-83
2021/10/10 15:43:07;;;;;;;10.50;6.05;;;;;;;12.84;57.04;99845.38;5094786;28;20052;-84
2021/10/10 15:45:34;;;;;;;12.48;6.75;;;;;;;12.89;57.10;99850.28;5094967;28;20078;-83
2021/10/10 15:48:03;;;;;;;11.40;6.35;;;;;;;12.70;58.14;99857.06;5105747;28;20052;-83
2021/10/10 15:50:30;;;;;;;13.55;6.57;;;;;;;12.75;58.10;99854.63;5111986;28;20051;-84
2021/10/10 15:53:01;;;;;;;12.18;6.03;;;;;;;12.70;58.62;99868.81;5094489;28;20040;-83
2021/10/10 15:55:30;;;;;;;11.00;6.60;;;;;;;12.67;58.48;99869.19;5094117;28;20044;-83
2021/10/10 15:57:57;;;;;;;12.98;6.50;;;;;;;12.57;59.52;99872.16;5094368;28;20048;-83
2021/10/10 16:00:24;;;;;;;17.10;6.75;;;;;;;12.37;59.54;99852.72;5093681;28;20564;-83
2021/10/10 16:02:51;;;;;;;14.93;7.03;;;;;;;12.47;59.48;99879.72;5085632;28;20050;-83
2021/10/10 16:05:20;;;;;;;11.30;6.07;;;;;;;12.49;59.98;99871.38;5111490;28;20130;-83
2021/10/10 16:07:47;;;;;;;17.90;6.40;;;;;;;12.47;60.28;99863.38;5094731;28;20056;-83
2021/10/10 16:10:29;;;;;;;11.65;6.88;;;;;;;12.36;61.15;99859.19;5073747;28;20052;-83
2021/10/10 16:12:56;;;;;;;16.35;8.10;;;;;;;12.16;62.38;99836.13;5085185;28;20055;-83
2021/10/10 16:15:23;;;;;;;15.85;8.43;;;;;;;12.16;62.56;99847.03;5094219;28;20056;-83
2021/10/10 16:17:52;;;;;;;14.32;7.18;;;;;;;11.90;62.66;99841.84;5083626;28;20050;-83
2021/10/10 16:20:24;;;;;;;10.82;6.45;;;;;;;11.79;62.60;99832.19;5093726;28;20047;-83
2021/10/10 16:22:55;;;;;;;26.63;13.98;;;;;;;11.79;64.83;99840.38;5093959;28;20154;-83
2021/10/10 16:25:22;;;;;;;20.92;10.30;;;;;;;11.41;66.78;99824.66;5093138;28;20140;-83
2021/10/10 16:27:49;;;;;;;16.33;8.68;;;;;;;11.16;69.12;99812.97;5093096;28;20078;-83
2021/10/10 16:30:16;;;;;;;15.38;7.00;;;;;;;10.97;70.59;99814.16;5083561;28;20095;-83
2021/10/10 16:32:47;;;;;;;15.10;7.53;;;;;;;10.83;70.89;99823.03;5081023;28;20051;-83
2021/10/10 16:35:19;;;;;;;14.35;7.45;;;;;;;10.74;69.93;99812.13;5093240;28;20044;-83
2021/10/10 16:37:53;;;;;;;19.80;8.85;;;;;;;10.65;69.37;99809.59;5093354;28;20402;-84
2021/10/10 16:40:27;;;;;;;26.30;12.80;;;;;;;10.60;70.58;99830.00;5085780;28;20131;-85
2021/10/10 16:43:12;;;;;;;28.33;12.15;;;;;;;10.37;71.86;99832.53;5091267;28;20455;-84
2021/10/10 16:45:42;;;;;;;22.05;11.40;;;;;;;10.13;73.93;99822.38;5093916;28;20458;-84
2021/10/10 16:48:11;;;;;;;26.30;11.70;;;;;;;10.08;74.94;99841.06;5093548;28;20047;-83
2021/10/10 16:50:46;;;;;;;16.80;7.85;;;;;;;10.02;75.55;99855.31;5094554;28;20132;-85
2021/10/10 16:53:14;;;;;;;10.50;6.90;;;;;;;9.93;76.74;99870.72;5093640;28;20052;-85
2021/10/10 16:55:51;;;;;;;;;;;;;;;;;;;;;
2021/10/10 16:58:20;;;;;;;21.48;8.95;;;;;;;9.80;79.86;99883.91;5093057;28;20044;-84
2021/10/10 17:00:47;;;;;;;34.67;15.55;;;;;;;9.48;81.32;99855.56;5093506;28;20055;-85
2021/10/10 17:03:15;;;;;;;62.17;28.00;;;;;;;9.55;82.27;99864.78;5093408;28;20146;-85
2021/10/10 17:05:45;;;;;;;75.35;34.15;;;;;;;9.50;81.84;99873.41;5093616;28;20064;-85
2021/10/10 17:08:18;;;;;;;32.80;16.08;;;;;;;9.25;81.84;99871.56;5093523;28;20501;-85
2021/10/10 17:10:57;;;;;;;27.60;12.35;;;;;;;9.20;82.57;99883.72;5093788;28;20044;-85
2021/10/10 17:13:41;;;;;;;16.50;10.07;;;;;;;9.09;82.88;99883.13;5102030;28;20050;-85
2021/10/10 17:16:08;;;;;;;17.08;8.27;;;;;;;8.98;83.44;99876.94;5114115;28;20057;-84
2021/10/10 17:18:35;;;;;;;17.95;8.65;;;;;;;9.03;83.57;99877.34;5104397;28;20122;-85
2021/10/10 17:21:04;;;;;;;13.35;7.50;;;;;;;8.88;83.05;99864.47;5093396;28;20046;-85
2021/10/10 17:23:32;;;;;;;19.10;8.43;;;;;;;8.94;83.79;99889.13;5093342;28;20051;-85
2021/10/10 17:26:00;;;;;;;16.02;9.25;;;;;;;8.92;83.44;99893.84;5093169;28;20406;-85
2021/10/10 17:28:27;;;;;;;15.30;8.68;;;;;;;8.68;83.45;99883.63;5093064;28;20040;-85
2021/10/10 17:31:21;;;;;;;19.27;8.68;;;;;;;8.63;84.55;99905.78;5093875;28;20048;-85
2021/10/10 17:33:48;;;;;;;20.48;10.10;;;;;;;8.68;84.99;99911.56;5093022;28;20055;-85
2021/10/10 17:36:19;;;;;;;19.27;10.10;;;;;;;8.63;86.42;99922.03;5092832;28;20131;-85
2021/10/10 17:38:46;;;;;;;17.77;9.15;;;;;;;8.61;87.24;99923.19;5093743;28;20040;-85
2021/10/10 17:41:16;;;;;;;18.83;9.82;;;;;;;8.70;86.54;99921.41;5097518;28;20047;-85
2021/10/10 17:43:43;;;;;;;14.27;8.63;;;;;;;8.42;87.18;99897.06;5097033;28;20044;-85
2021/10/10 17:46:19;;;;;;;12.45;8.27;;;;;;;8.30;87.36;99899.13;5097332;28;20093;-85
2021/10/10 17:48:49;;;;;;;16.00;8.18;;;;;;;8.19;88.68;99899.31;5097002;28;20086;-85
2021/10/10 17:51:18;;;;;;;17.95;8.82;;;;;;;8.19;88.45;99911.03;5083775;28;20056;-85
2021/10/10 17:53:45;;;;;;;16.13;7.80;;;;;;;8.01;89.67;99900.16;5092657;28;20047;-85
2021/10/10 17:56:15;;;;;;;14.30;7.80;;;;;;;8.08;89.00;99930.19;5097085;28;20150;-85
2021/10/10 17:58:54;;;;;;;13.68;7.72;;;;;;;7.96;89.25;99933.09;5097229;28;20055;-85
2021/10/10 18:01:36;;;;;;;12.23;6.50;;;;;;;8.02;88.97;99938.91;5097304;28;20475;-85
2021/10/10 18:12:31;;;;;;;14.75;7.85;;;;;;;7.37;91.10;99916.19;5088563;28;20059;-85
2021/10/10 18:15:01;;;;;;;14.18;6.80;;;;;;;7.29;91.89;99934.13;5096794;28;20143;-84
2021/10/10 18:17:28;;;;;;;13.57;7.07;;;;;;;7.24;91.67;99934.56;5096565;28;20064;-85
2021/10/10 18:19:57;;;;;;;11.60;7.53;;;;;;;7.11;92.24;99923.22;5076883;28;20129;-85
2021/10/10 18:22:33;;;;;;;17.35;7.70;;;;;;;7.15;92.44;99932.72;5076998;28;20511;-85
2021/10/10 18:25:00;;;;;;;14.00;7.32;;;;;;;6.98;92.52;99932.47;5096480;28;20514;-85
2021/10/10 18:27:28;;;;;;;13.95;6.43;;;;;;;6.99;92.67;99947.69;5096368;28;20411;-85
2021/10/10 18:29:56;;;;;;;14.35;7.20;;;;;;;6.95;92.33;99953.53;5096579;28;20048;-85
2021/10/10 18:32:25;;;;;;;8.60;5.65;;;;;;;6.95;92.51;99961.63;5096453;28;20062;-85
2021/10/10 18:34:52;;;;;;;12.85;6.82;;;;;;;6.85;91.92;99967.03;5113170;28;20051;-85
2021/10/10 18:37:19;;;;;;;20.98;6.78;;;;;;;6.56;92.55;99940.81;5116620;28;20043;-85
2021/10/10 18:39:46;;;;;;;15.77;8.25;;;;;;;6.53;92.42;99935.72;5097113;28;20044;-85
2021/10/10 18:42:13;;;;;;;19.10;8.55;;;;;;;6.48;93.22;99943.38;5096125;28;20048;-84
2021/10/10 18:44:40;;;;;;;12.85;6.63;;;;;;;6.51;93.13;99952.06;5095803;28;20056;-84
2021/10/10 18:47:09;;;;;;;13.20;7.38;;;;;;;6.47;93.21;99950.63;5096157;28;20055;-85
2021/10/10 18:49:36;;;;;;;8.82;5.47;;;;;;;6.31;94.07;99964.69;5095343;28;20055;-84
2021/10/10 18:52:03;;;;;;;10.73;6.25;;;;;;;5.98;94.62;99939.69;5082992;28;20045;-84
2021/10/10 18:54:32;;;;;;;10.15;6.28;;;;;;;6.15;94.93;99948.97;5090857;28;20052;-84
2021/10/10 18:56:59;;;;;;;15.18;7.93;;;;;;;6.17;94.86;99955.13;5076439;28;20106;-85
2021/10/10 18:59:26;;;;;;;12.85;6.15;;;;;;;6.02;95.22;99957.34;5089696;28;20075;-84
2021/10/10 19:01:53;;;;;;;15.68;6.78;;;;;;;5.88;95.55;99954.13;5095833;28;20039;-85
2021/10/10 19:04:22;;;;;;;9.93;6.75;;;;;;;5.82;96.68;99959.03;5095607;28;20059;-85
2021/10/10 19:06:53;;;;;;;14.10;6.03;;;;;;;5.91;95.78;99967.34;5095777;28;20079;-85
2021/10/10 19:09:20;;;;;;;10.38;6.70;;;;;;;5.80;95.93;99966.44;5095673;28;20044;-85
2021/10/10 19:11:52;;;;;;;10.05;6.93;;;;;;;5.66;95.32;99943.38;5100430;28;20078;-84
2021/10/10 19:14:41;;;;;;;12.73;6.43;;;;;;;5.61;95.16;99956.38;5104281;28;20517;-84
2021/10/10 19:17:11;;;;;;;12.90;6.72;;;;;;;5.47;95.50;99954.88;5073375;28;20064;-85
2021/10/10 19:19:55;;;;;;;10.75;6.68;;;;;;;5.32;96.87;99961.59;5083705;28;20044;-85
2021/10/10 19:22:24;;;;;;;13.45;6.93;;;;;;;5.45;96.17;99958.69;5092768;28;20048;-85
2021/10/10 19:24:51;;;;;;;17.00;7.20;;;;;;;5.45;95.84;99956.88;5094804;28;20506;-85
2021/10/10 19:27:33;;;;;;;11.40;6.15;;;;;;;5.45;95.44;99962.28;5093631;28;20131;-85
2021/10/10 19:30:02;;;;;;;11.63;6.45;;;;;;;5.37;95.49;99956.66;5088810;28;20048;-84
2021/10/10 19:32:29;;;;;;;10.55;6.50;;;;;;;5.36;95.61;99971.16;5095732;28;20566;-84
2021/10/10 19:35:08;;;;;;;10.77;6.45;;;;;;;5.25;95.82;99955.88;5094709;28;20060;-84
2021/10/10 19:37:37;;;;;;;11.50;6.88;;;;;;;5.34;95.97;99972.25;5076083;28;20198;-84
2021/10/10 19:40:14;;;;;;;11.73;6.45;;;;;;;5.16;96.38;99959.34;5091006;28;20081;-85
2021/10/10 19:42:45;;;;;;;11.23;6.80;;;;;;;5.08;96.56;99954.63;5094907;28;20052;-84
2021/10/10 19:45:15;;;;;;;14.85;6.88;;;;;;;5.06;96.19;99953.91;5094049;28;20723;-82
2021/10/10 19:47:46;;;;;;;10.30;6.78;;;;;;;4.96;96.15;99955.66;5074881;28;20663;-84
2021/10/10 19:50:31;;;;;;;11.05;6.45;;;;;;;4.96;96.10;99971.84;5089360;28;20040;-84
2021/10/10 19:52:59;;;;;;;14.40;6.25;;;;;;;4.87;96.06;99953.75;5094727;28;20124;-84
2021/10/10 19:55:26;;;;;;;10.63;6.32;;;;;;;4.87;96.61;99973.47;5094418;28;20044;-84
2021/10/10 19:57:56;;;;;;;11.00;6.32;;;;;;;4.79;96.53;99962.47;5095050;28;20073;-82
2021/10/10 20:00:23;;;;;;;12.13;6.30;;;;;;;4.79;96.82;99962.47;5094082;28;20051;-84
2021/10/10 20:03:05;;;;;;;10.93;7.20;;;;;;;4.86;96.12;99969.03;5091422;28;20151;-84
2021/10/10 20:05:46;;;;;;;13.27;6.10;;;;;;;4.60;96.03;99955.91;5074099;28;20056;-83
2021/10/10 20:08:13;;;;;;;12.68;5.57;;;;;;;4.59;96.43;99975.78;5077736;28;20109;-84
2021/10/10 20:10:45;;;;;;;10.30;6.03;;;;;;;4.73;95.91;99973.78;5074263;28;20052;-84
2021/10/10 20:13:16;;;;;;;9.73;6.35;;;;;;;4.50;96.22;99960.38;5074501;28;20049;-84
2021/10/10 20:15:43;;;;;;;12.30;7.20;;;;;;;4.46;96.86;99949.94;5073800;28;20151;-84
2021/10/10 20:18:12;;;;;;;11.90;6.72;;;;;;;4.57;98.28;99988.47;5073827;28;20059;-84
2021/10/10 20:20:43;;;;;;;12.60;7.80;;;;;;;4.48;98.42;99993.78;5085617;28;20665;-84
2021/10/10 20:23:13;;;;;;;13.18;6.65;;;;;;;4.34;97.53;99970.69;5088482;28;20044;-83
2021/10/10 20:25:41;;;;;;;10.20;5.63;;;;;;;4.24;97.40;99962.50;5073126;28;20053;-84
2021/10/10 20:28:11;;;;;;;11.55;6.32;;;;;;;4.37;97.08;99990.13;5078807;28;20074;-84
2021/10/10 20:30:39;;;;;;;10.10;6.80;;;;;;;4.24;97.96;100001.03;5082005;28;20047;-84
2021/10/10 20:33:12;;;;;;;11.98;6.47;;;;;;;4.22;98.08;100000.28;5089816;28;20044;-83
2021/10/10 20:35:42;;;;;;;10.52;6.05;;;;;;;4.29;97.54;100000.69;5074166;28;20131;-84
2021/10/10 20:38:11;;;;;;;;;;;;;;;4.29;97.47;100006.06;5081468;28;20052;-84
2021/10/10 20:40:48;;;;;;;10.10;6.22;;;;;;;4.18;97.52;99992.59;5093799;28;19920;-84
2021/10/10 20:43:20;;;;;;;11.95;7.35;;;;;;;4.14;97.25;99992.00;5090060;28;20459;-84
2021/10/10 20:45:47;;;;;;;15.77;6.60;;;;;;;4.17;97.13;100007.03;5093441;28;20066;-83
2021/10/10 20:48:15;;;;;;;13.15;6.47;;;;;;;4.11;97.56;100005.69;5100212;28;20047;-84
2021/10/10 20:51:10;;;;;;;11.25;6.65;;;;;;;3.98;97.83;99997.75;5103131;28;20036;-84
2021/10/10 20:53:50;;;;;;;13.77;7.75;;;;;;;3.80;97.83;99975.84;5087045;28;20050;-83
2021/10/10 20:56:21;;;;;;;15.43;7.28;;;;;;;3.82;97.78;99981.94;5091155;28;20056;-83
2021/10/10 20:58:48;;;;;;;13.38;7.43;;;;;;;3.88;97.90;99981.50;5088351;28;20406;-83
2021/10/10 21:01:15;;;;;;;11.25;6.53;;;;;;;3.76;97.91;99968.16;5071298;28;20053;-84
2021/10/10 21:03:44;;;;;;;12.88;7.05;;;;;;;3.75;98.03;99979.88;5090226;28;20101;-84
2021/10/10 21:06:12;;;;;;;12.82;7.28;;;;;;;3.76;98.11;99977.06;5073580;28;20484;-83
2021/10/10 21:08:42;;;;;;;13.52;6.97;;;;;;;3.60;98.27;99963.97;5082109;28;20071;-84
2021/10/10 21:11:10;;;;;;;13.60;7.03;;;;;;;3.60;99.81;99965.78;5073903;28;20441;-85
2021/10/10 21:13:40;;;;;;;13.00;7.30;;;;;;;3.62;99.50;99963.84;5077662;28;20036;-84